createdAt,value
2018-07-07T00:01:05.055Z,97518.41
2018-07-07T00:03:34.267Z,97523.54
2018-07-07T00:06:03.472Z,97519.21
2018-07-07T00:08:32.844Z,97518.16
2018-07-07T00:11:02.336Z,97521.09
2018-07-07T00:13:31.539Z,97515.92
2018-07-07T00:16:01.047Z,97524.28
2018-07-07T00:18:30.226Z,97522.09
2018-07-07T00:20:59.399Z,97519.95
2018-07-07T00:23:28.586Z,97519.10
2018-07-07T00:25:58.343Z,97523.42
2018-07-07T00:28:27.567Z,97521.81
2018-07-07T00:30:57.127Z,97516.69
2018-07-07T00:33:26.323Z,97520.72
2018-07-07T00:35:55.524Z,97519.09
2018-07-07T00:38:24.762Z,97518.00
2018-07-07T00:40:54.183Z,97523.13
2018-07-07T00:43:23.391Z,97520.42
2018-07-07T00:45:52.566Z,97514.53
2018-07-07T00:48:21.738Z,97520.69
2018-07-07T00:50:50.955Z,97519.36
2018-07-07T00:53:20.155Z,97515.03
2018-07-07T00:55:49.342Z,97521.48
2018-07-07T00:58:18.851Z,97521.98
2018-07-07T01:00:52.794Z,97520.64
2018-07-07T01:03:22.731Z,97522.78
2018-07-07T01:05:51.982Z,97523.58
2018-07-07T01:08:21.155Z,97515.48
2018-07-07T01:10:50.327Z,97514.36
2018-07-07T01:13:19.503Z,97517.91
2018-07-07T01:15:48.670Z,97516.03
2018-07-07T01:18:17.848Z,97511.43
2018-07-07T01:20:46.999Z,97513.88
2018-07-07T01:23:16.196Z,97514.92
2018-07-07T01:25:45.719Z,97513.23
2018-07-07T01:28:14.923Z,97509.70
2018-07-07T01:30:44.107Z,97514.81
2018-07-07T01:33:13.402Z,97509.97
2018-07-07T01:35:42.619Z,97508.14
2018-07-07T01:38:11.820Z,97511.12
2018-07-07T01:40:40.980Z,97509.77
2018-07-07T01:43:10.285Z,97509.44
2018-07-07T01:45:39.815Z,97508.37
2018-07-07T01:48:09.376Z,97502.44
2018-07-07T01:50:38.567Z,97506.72
2018-07-07T01:53:08.143Z,97508.06
2018-07-07T01:55:37.763Z,97503.53
2018-07-07T01:58:07.062Z,97507.28
2018-07-07T02:00:36.353Z,97502.65
2018-07-07T02:03:05.550Z,97498.02
2018-07-07T02:05:34.739Z,97496.42
2018-07-07T02:08:04.031Z,97498.02
2018-07-07T02:10:33.407Z,97499.11
2018-07-07T02:13:02.887Z,97504.26
2018-07-07T02:15:32.427Z,97499.98
2018-07-07T02:18:01.616Z,97497.28
2018-07-07T02:20:30.830Z,97496.19
2018-07-07T02:23:00.014Z,97491.61
2018-07-07T02:25:29.203Z,97476.75
2018-07-07T02:27:58.458Z,97497.46
2018-07-07T02:30:27.686Z,97502.30
2018-07-07T02:32:56.885Z,97493.98
2018-07-07T02:35:26.554Z,97494.48
2018-07-07T02:37:55.734Z,97495.55
2018-07-07T02:40:24.923Z,97492.30
2018-07-07T02:42:54.091Z,97493.70
2018-07-07T02:45:23.300Z,97492.30
2018-07-07T02:47:52.485Z,97497.66
2018-07-07T02:50:21.711Z,97499.00
2018-07-07T02:52:51.007Z,97508.94
2018-07-07T02:55:20.543Z,97504.59
2018-07-07T02:57:50.032Z,97499.51
2018-07-07T03:00:20.772Z,97496.25
2018-07-07T03:02:50.032Z,97504.90
2018-07-07T03:05:21.106Z,97502.98
2018-07-07T03:07:50.278Z,97501.70
2018-07-07T03:10:19.640Z,97508.80
2018-07-07T03:12:49.084Z,97506.16
2018-07-07T03:15:21.036Z,97507.33
2018-07-07T03:17:50.525Z,97510.07
2018-07-07T03:20:19.831Z,97505.52
2018-07-07T03:22:48.999Z,97504.98
2018-07-07T03:25:18.220Z,97511.49
2018-07-07T03:27:47.531Z,97513.35
2018-07-07T03:30:16.771Z,97513.91
2018-07-07T03:32:45.958Z,97509.07
2018-07-07T03:35:15.175Z,97517.45
2018-07-07T03:37:44.575Z,97518.84
2018-07-07T03:40:13.812Z,97522.32
2018-07-07T03:42:42.944Z,97524.50
2018-07-07T03:45:12.135Z,97522.62
2018-07-07T03:47:41.659Z,97521.02
2018-07-07T03:50:10.874Z,97528.66
2018-07-07T03:52:40.059Z,97523.27
2018-07-07T03:55:09.271Z,97532.45
2018-07-07T03:57:38.654Z,97530.32
2018-07-07T04:00:07.886Z,97533.83
2018-07-07T04:02:37.053Z,97528.97
2018-07-07T04:05:06.742Z,97537.08
2018-07-07T04:07:36.268Z,97534.10
2018-07-07T04:10:05.703Z,97531.39
2018-07-07T04:12:35.015Z,97535.47
2018-07-07T04:15:04.372Z,97533.56
2018-07-07T04:17:33.540Z,97533.55
2018-07-07T04:20:02.725Z,97531.92
2018-07-07T04:22:32.592Z,97536.52
2018-07-07T04:25:01.803Z,97534.06
2018-07-07T04:27:30.987Z,97535.42
2018-07-07T04:30:00.192Z,97534.35
2018-07-07T04:32:29.591Z,97533.52
2018-07-07T04:34:58.813Z,97527.56
2018-07-07T04:37:28.092Z,97533.74
2018-07-07T04:39:57.278Z,97529.97
2018-07-07T04:42:26.452Z,97531.77
2018-07-07T04:44:55.660Z,97531.23
2018-07-07T04:47:24.834Z,97533.16
2018-07-07T04:49:54.032Z,97527.95
2018-07-07T04:52:23.268Z,97534.73
2018-07-07T04:54:52.407Z,97533.30
2018-07-07T04:57:21.572Z,97540.62
2018-07-07T04:59:50.782Z,97542.68
2018-07-07T05:02:19.955Z,97537.59
2018-07-07T05:04:49.136Z,97546.70
2018-07-07T05:07:18.307Z,97544.69
2018-07-07T05:09:47.479Z,97548.89
2018-07-07T05:12:16.719Z,97550.73
2018-07-07T05:14:46.163Z,97545.27
2018-07-07T05:17:15.754Z,97548.34
2018-07-07T05:19:45.087Z,97553.30
2018-07-07T05:22:14.263Z,97543.67
2018-07-07T05:24:43.439Z,97549.13
2018-07-07T05:27:12.714Z,97547.14
2018-07-07T05:29:41.887Z,97547.84
2018-07-07T05:32:11.129Z,97546.02
2018-07-07T05:34:40.246Z,97540.36
2018-07-07T05:37:09.717Z,97546.56
2018-07-07T05:39:39.211Z,97541.09
2018-07-07T05:42:08.663Z,97544.72
2018-07-07T05:44:38.543Z,97547.48
2018-07-07T05:47:07.735Z,97552.11
2018-07-07T05:49:36.954Z,97548.43
2018-07-07T05:52:06.158Z,97550.27
2018-07-07T05:54:35.349Z,97553.45
2018-07-07T05:57:04.595Z,97548.13
2018-07-07T05:59:33.769Z,97555.16
2018-07-07T06:02:02.971Z,97551.04
2018-07-07T06:04:32.162Z,97552.75
2018-07-07T06:07:01.331Z,97560.52
2018-07-07T06:09:30.515Z,97552.26
2018-07-07T06:11:59.698Z,97556.36
2018-07-07T06:14:28.997Z,97555.91
2018-07-07T06:16:58.206Z,97562.13
2018-07-07T06:19:27.391Z,97554.17
2018-07-07T06:21:56.583Z,97557.39
2018-07-07T06:24:25.777Z,97558.02
2018-07-07T06:26:55.203Z,97561.36
2018-07-07T06:29:24.492Z,97557.52
2018-07-07T06:31:53.705Z,97557.41
2018-07-07T06:34:22.874Z,97559.02
2018-07-07T06:36:52.070Z,97555.27
2018-07-07T06:39:21.239Z,97564.35
2018-07-07T06:41:50.429Z,97563.77
2018-07-07T06:44:19.595Z,97561.95
2018-07-07T06:46:48.765Z,97566.43
2018-07-07T06:49:17.947Z,97562.61
2018-07-07T06:51:47.127Z,97564.30
2018-07-07T06:54:16.279Z,97562.41
2018-07-07T06:56:46.036Z,97563.27
2018-07-07T06:59:15.176Z,97562.95
2018-07-07T07:01:44.755Z,97556.30
2018-07-07T07:04:14.355Z,97559.87
2018-07-07T07:06:43.536Z,97558.00
2018-07-07T07:09:13.547Z,97558.77
2018-07-07T07:11:42.720Z,97555.19
2018-07-07T07:14:12.103Z,97555.47
2018-07-07T07:16:41.263Z,97556.30
2018-07-07T07:19:11.294Z,97555.03
2018-07-07T07:21:40.583Z,97554.44
2018-07-07T07:24:09.747Z,97553.67
2018-07-07T07:26:39.579Z,97551.05
2018-07-07T07:29:08.730Z,97559.16
2018-07-07T07:31:37.934Z,97547.69
2018-07-07T07:34:07.248Z,97552.11
2018-07-07T07:36:42.559Z,97550.77
2018-07-07T07:39:12.156Z,97556.77
2018-07-07T07:41:41.443Z,97553.67
2018-07-07T07:44:10.891Z,97553.94
2018-07-07T07:46:40.190Z,97553.84
2018-07-07T07:49:09.966Z,97551.83
2018-07-07T07:51:39.147Z,97550.09
2018-07-07T07:54:08.318Z,97549.97
2018-07-07T07:56:37.483Z,97550.02
2018-07-07T07:59:06.684Z,97549.80
2018-07-07T08:01:36.127Z,97551.62
2018-07-07T08:04:05.439Z,97558.95
2018-07-07T08:06:34.613Z,97557.17
2018-07-07T08:09:04.163Z,97562.11
2018-07-07T08:11:33.415Z,97551.97
2018-07-07T08:14:02.565Z,97558.98
2018-07-07T08:16:31.733Z,97562.82
2018-07-07T08:19:00.870Z,97554.56
2018-07-07T08:21:30.084Z,97565.82
2018-07-07T08:23:59.255Z,97560.17
2018-07-07T08:26:28.426Z,97548.41
2018-07-07T08:28:57.579Z,97560.32
2018-07-07T08:31:26.771Z,97568.44
2018-07-07T08:33:55.943Z,97558.15
2018-07-07T08:36:25.148Z,97562.34
2018-07-07T08:38:54.386Z,97563.94
2018-07-07T08:41:23.599Z,97565.41
2018-07-07T08:43:52.779Z,97565.95
2018-07-07T08:46:22.133Z,97570.95
2018-07-07T08:48:51.251Z,97566.55
2018-07-07T08:51:20.415Z,97566.01
2018-07-07T08:53:49.709Z,97561.57
2018-07-07T08:56:18.907Z,97558.50
2018-07-07T08:58:48.051Z,97567.56
2018-07-07T09:01:17.215Z,97559.91
2018-07-07T09:03:47.135Z,97558.70
2018-07-07T09:06:16.379Z,97560.46
2018-07-07T09:08:45.899Z,97565.19
2018-07-07T09:11:15.059Z,97560.66
2018-07-07T09:13:44.218Z,97556.13
2018-07-07T09:16:13.385Z,97559.11
2018-07-07T09:18:42.958Z,97563.03
2018-07-07T09:21:12.072Z,97557.55
2018-07-07T09:23:41.246Z,97560.32
2018-07-07T09:26:10.774Z,97558.19
2018-07-07T09:28:39.984Z,97562.95
2018-07-07T09:31:09.776Z,97567.88
2018-07-07T09:33:39.088Z,97565.22
2018-07-07T09:36:08.227Z,97559.63
2018-07-07T09:38:37.431Z,97562.30
2018-07-07T09:41:06.604Z,97558.27
2018-07-07T09:43:35.795Z,97559.14
2018-07-07T09:46:05.000Z,97559.55
2018-07-07T09:48:34.406Z,97562.00
2018-07-07T09:51:03.619Z,97558.52
2018-07-07T09:53:32.975Z,97561.05
2018-07-07T09:56:02.148Z,97559.19
2018-07-07T09:58:31.415Z,97568.14
2018-07-07T10:01:00.592Z,97563.63
2018-07-07T10:03:29.778Z,97558.05
2018-07-07T10:05:58.975Z,97561.28
2018-07-07T10:08:28.244Z,97560.06
2018-07-07T10:10:57.412Z,97554.52
2018-07-07T10:13:26.639Z,97563.70
2018-07-07T10:15:55.746Z,97553.26
2018-07-07T10:18:24.938Z,97556.08
2018-07-07T10:20:54.395Z,97553.88
2018-07-07T10:23:23.795Z,97552.41
2018-07-07T10:25:52.963Z,97557.11
2018-07-07T10:28:22.135Z,97563.76
2018-07-07T10:30:51.310Z,97555.08
2018-07-07T10:33:20.504Z,97561.31
2018-07-07T10:35:49.691Z,97556.03
2018-07-07T10:38:18.898Z,97548.55
2018-07-07T10:40:48.047Z,97550.20
2018-07-07T10:43:17.242Z,97548.88
2018-07-07T10:45:46.489Z,97553.93
2018-07-07T10:48:15.563Z,97546.46
2018-07-07T10:50:44.716Z,97549.80
2018-07-07T10:53:13.901Z,97539.75
2018-07-07T10:55:43.386Z,97546.42
2018-07-07T10:58:12.598Z,97545.13
2018-07-07T11:00:41.764Z,97546.67
2018-07-07T11:03:11.002Z,97541.64
2018-07-07T11:05:40.287Z,97535.12
2018-07-07T11:08:09.959Z,97529.43
2018-07-07T11:10:39.125Z,97532.83
2018-07-07T11:13:08.343Z,97528.36
2018-07-07T11:15:37.487Z,97523.23
2018-07-07T11:18:06.890Z,97518.84
2018-07-07T11:20:36.039Z,97524.44
2018-07-07T11:23:05.262Z,97514.03
2018-07-07T11:25:34.431Z,97520.56
2018-07-07T11:28:03.794Z,97519.70
2018-07-07T11:30:33.076Z,97521.42
2018-07-07T11:33:02.414Z,97520.52
2018-07-07T11:35:32.178Z,97522.72
2018-07-07T11:38:02.088Z,97522.72
2018-07-07T11:40:31.294Z,97525.70
2018-07-07T11:43:02.215Z,97515.33
2018-07-07T11:45:31.471Z,97511.67
2018-07-07T11:48:01.095Z,97513.40
2018-07-07T11:50:30.328Z,97526.98
2018-07-07T11:52:59.473Z,97524.73
2018-07-07T11:55:28.931Z,97516.39
2018-07-07T11:57:58.227Z,97518.95
2018-07-07T12:00:28.112Z,97524.25
2018-07-07T12:02:57.919Z,97521.20
2018-07-07T12:05:27.077Z,97506.45
2018-07-07T12:08:00.832Z,97513.15
2018-07-07T12:10:25.495Z,97514.13
2018-07-07T12:12:54.675Z,97517.78
2018-07-07T12:15:23.971Z,97517.06
2018-07-07T12:17:53.203Z,97520.31
2018-07-07T12:20:22.787Z,97513.12
2018-07-07T12:22:51.975Z,97501.48
2018-07-07T12:25:21.164Z,97510.33
2018-07-07T12:27:50.332Z,97503.17
2018-07-07T12:30:19.551Z,97511.44
2018-07-07T12:32:48.785Z,97505.91
2018-07-07T12:35:18.179Z,97494.80
2018-07-07T12:37:47.442Z,97489.44
2018-07-07T12:40:16.625Z,97500.61
2018-07-07T12:42:48.585Z,97488.73
2018-07-07T12:45:17.984Z,97491.06
2018-07-07T12:47:47.162Z,97491.45
2018-07-07T12:50:16.380Z,97499.70
2018-07-07T12:52:45.561Z,97502.53
2018-07-07T12:55:14.811Z,97499.20
2018-07-07T12:57:44.003Z,97495.43
2018-07-07T13:00:13.185Z,97489.97
2018-07-07T13:02:42.530Z,97495.64
2018-07-07T13:05:12.407Z,97490.50
2018-07-07T13:07:41.669Z,97482.86
2018-07-07T13:10:10.843Z,97483.86
2018-07-07T13:12:39.995Z,97488.84
2018-07-07T13:15:09.199Z,97498.25
2018-07-07T13:17:38.479Z,97489.00
2018-07-07T13:20:08.491Z,97497.45
2018-07-07T13:22:37.725Z,97483.52
2018-07-07T13:25:07.111Z,97485.02
2018-07-07T13:27:36.395Z,97489.41
2018-07-07T13:30:05.698Z,97489.92
2018-07-07T13:32:34.887Z,97497.20
2018-07-07T13:35:04.128Z,97490.47
2018-07-07T13:37:33.515Z,97484.73
2018-07-07T13:40:02.696Z,97492.14
2018-07-07T13:42:32.097Z,97494.27
2018-07-07T13:45:01.299Z,97497.20
2018-07-07T13:47:30.480Z,97498.63
2018-07-07T13:49:59.664Z,97502.22
2018-07-07T13:52:28.919Z,97499.92
2018-07-07T13:54:58.087Z,97496.33
2018-07-07T13:57:27.227Z,97502.94
2018-07-07T13:59:56.419Z,97505.30
2018-07-07T14:02:25.637Z,97509.61
2018-07-07T14:04:54.771Z,97504.50
2018-07-07T14:07:23.947Z,97501.14
2018-07-07T14:09:53.118Z,97493.08
2018-07-07T14:12:22.310Z,97491.24
2018-07-07T14:14:51.523Z,97500.11
2018-07-07T14:17:20.748Z,97503.37
2018-07-07T14:19:49.855Z,97501.82
2018-07-07T14:22:19.278Z,97496.00
2018-07-07T14:24:48.943Z,97496.70
2018-07-07T14:27:18.242Z,97498.09
2018-07-07T14:29:47.443Z,97500.93
2018-07-07T14:32:16.627Z,97499.98
2018-07-07T14:34:45.941Z,97477.27
2018-07-07T14:37:15.595Z,97479.54
2018-07-07T14:39:50.867Z,97485.86
2018-07-07T14:42:45.355Z,97487.59
2018-07-07T14:45:21.535Z,97483.72
2018-07-07T14:47:51.727Z,97480.78
2018-07-07T14:50:21.082Z,97483.64
2018-07-07T14:52:50.272Z,97486.58
2018-07-07T14:55:20.698Z,97478.96
2018-07-07T14:57:49.928Z,97483.69
2018-07-07T15:00:24.133Z,97475.39
2018-07-07T15:02:55.161Z,97480.66
2018-07-07T15:05:24.697Z,97482.41
2018-07-07T15:07:54.064Z,97492.69
2018-07-07T15:10:24.453Z,97488.22
2018-07-07T15:12:53.607Z,97481.24
2018-07-07T15:15:22.801Z,97481.16
2018-07-07T15:17:51.970Z,97488.64
2018-07-07T15:20:21.130Z,97484.81
2018-07-07T15:22:50.329Z,97479.05
2018-07-07T15:25:19.627Z,97481.98
2018-07-07T15:27:48.819Z,97486.52
2018-07-07T15:30:18.263Z,97482.84
2018-07-07T15:32:47.631Z,97472.77
2018-07-07T15:35:16.811Z,97473.75
2018-07-07T15:37:46.016Z,97486.26
2018-07-07T15:40:15.256Z,97479.43
2018-07-07T15:42:44.391Z,97476.09
2018-07-07T15:45:13.703Z,97482.94
2018-07-07T15:47:42.863Z,97473.02
2018-07-07T15:50:12.267Z,97478.70
2018-07-07T15:52:41.581Z,97471.50
2018-07-07T15:55:10.791Z,97482.43
2018-07-07T15:57:39.961Z,97482.88
2018-07-07T16:00:10.311Z,97477.23
2018-07-07T16:02:39.813Z,97473.52
2018-07-07T16:05:08.999Z,97479.27
2018-07-07T16:07:38.199Z,97475.02
2018-07-07T16:10:07.387Z,97481.91
2018-07-07T16:12:36.824Z,97472.66
2018-07-07T16:15:06.163Z,97481.98
2018-07-07T16:17:35.352Z,97471.31
2018-07-07T16:20:04.559Z,97470.16
2018-07-07T16:22:33.752Z,97479.31
2018-07-07T16:25:03.325Z,97474.38
2018-07-07T16:27:32.494Z,97470.70
2018-07-07T16:30:01.658Z,97470.51
2018-07-07T16:32:32.900Z,97466.36
2018-07-07T16:35:02.085Z,97464.66
2018-07-07T16:37:31.264Z,97467.08
2018-07-07T16:40:01.018Z,97467.54
2018-07-07T16:42:31.374Z,97460.35
2018-07-07T16:45:01.426Z,97454.89
2018-07-07T16:47:32.143Z,97465.25
2018-07-07T16:50:02.307Z,97458.72
2018-07-07T16:52:32.016Z,97465.25
2018-07-07T16:55:01.215Z,97469.24
2018-07-07T16:57:30.425Z,97466.12
2018-07-07T17:00:02.916Z,97465.30
2018-07-07T17:02:34.619Z,97475.42
2018-07-07T17:05:04.663Z,97471.42
2018-07-07T17:07:33.915Z,97472.02
2018-07-07T17:10:04.978Z,97468.36
2018-07-07T17:12:36.032Z,97468.92
2018-07-07T17:15:05.192Z,97470.17
2018-07-07T17:17:36.775Z,97468.02
2018-07-07T17:20:06.611Z,97465.36
2018-07-07T17:22:35.903Z,97469.04
2018-07-07T17:25:05.091Z,97467.53
2018-07-07T17:27:34.312Z,97468.24
2018-07-07T17:30:03.523Z,97462.50
2018-07-07T17:32:32.746Z,97465.13
2018-07-07T17:35:02.214Z,97459.15
2018-07-07T17:37:31.427Z,97465.34
2018-07-07T17:40:00.987Z,97462.08
2018-07-07T17:42:30.324Z,97467.37
2018-07-07T17:45:00.215Z,97465.48
2018-07-07T17:47:29.851Z,97464.80
2018-07-07T17:50:01.064Z,97469.59
2018-07-07T17:52:30.311Z,97465.91
2018-07-07T17:54:59.723Z,97472.98
2018-07-07T17:57:28.943Z,97473.41
2018-07-07T17:59:58.346Z,97475.34
2018-07-07T18:02:27.584Z,97472.39
2018-07-07T18:04:56.812Z,97476.78
2018-07-07T18:07:26.023Z,97479.02
2018-07-07T18:09:55.520Z,97481.69
2018-07-07T18:12:24.728Z,97477.50
2018-07-07T18:14:54.507Z,97484.36
2018-07-07T18:17:23.703Z,97487.78
2018-07-07T18:19:52.875Z,97488.66
2018-07-07T18:22:22.323Z,97488.89
2018-07-07T18:24:51.495Z,97483.37
2018-07-07T18:27:20.719Z,97493.14
2018-07-07T18:29:49.879Z,97487.68
2018-07-07T18:32:19.065Z,97487.43
2018-07-07T18:34:48.315Z,97486.79
2018-07-07T18:37:17.890Z,97485.25
2018-07-07T18:39:47.339Z,97486.85
2018-07-07T18:42:17.339Z,97487.97
2018-07-07T18:44:46.831Z,97486.80
2018-07-07T18:47:16.123Z,97489.02
2018-07-07T18:49:45.274Z,97490.08
2018-07-07T18:52:14.475Z,97486.88
2018-07-07T18:54:43.663Z,97483.81
2018-07-07T18:57:12.883Z,97491.01
2018-07-07T18:59:42.250Z,97492.05
2018-07-07T19:02:11.431Z,97492.78
2018-07-07T19:04:40.675Z,97494.42
2018-07-07T19:07:09.867Z,97491.19
2018-07-07T19:09:39.060Z,97489.99
2018-07-07T19:12:08.274Z,97480.06
2018-07-07T19:14:37.894Z,97487.92
2018-07-07T19:17:07.063Z,97486.01
2018-07-07T19:19:36.223Z,97483.02
2018-07-07T19:22:10.719Z,97486.13
2018-07-07T19:24:45.451Z,97492.05
2018-07-07T19:27:14.628Z,97500.95
2018-07-07T19:29:43.807Z,97496.30
2018-07-07T19:32:18.160Z,97498.02
2018-07-07T19:34:52.534Z,97491.10
2018-07-07T19:37:22.488Z,97499.66
2018-07-07T19:39:52.463Z,97501.30
2018-07-07T19:42:21.679Z,97497.78
2018-07-07T19:44:50.867Z,97501.28
2018-07-07T19:47:20.468Z,97509.33
2018-07-07T19:49:49.633Z,97510.33
2018-07-07T19:52:18.843Z,97514.73
2018-07-07T19:54:48.018Z,97508.20
2018-07-07T19:57:17.203Z,97517.22
2018-07-07T19:59:46.368Z,97515.61
2018-07-07T20:02:15.934Z,97523.12
2018-07-07T20:04:45.123Z,97516.91
2018-07-07T20:07:14.322Z,97516.61
2018-07-07T20:09:43.488Z,97521.89
2018-07-07T20:12:12.660Z,97517.54
2018-07-07T20:14:42.119Z,97524.95
2018-07-07T20:17:12.444Z,97527.97
2018-07-07T20:21:53.302Z,97529.33
2018-07-07T20:24:30.939Z,97526.80
2018-07-07T20:27:05.331Z,97525.73
2018-07-07T20:29:34.871Z,97523.71
2018-07-07T20:32:08.197Z,97524.33
2018-07-07T20:34:37.379Z,97529.55
2018-07-07T20:37:07.474Z,97533.58
2018-07-07T20:39:36.691Z,97532.83
2018-07-07T20:42:06.014Z,97533.22
2018-07-07T20:44:35.202Z,97533.73
2018-07-07T20:47:04.755Z,97532.11
2018-07-07T20:49:33.927Z,97533.39
2018-07-07T20:52:03.461Z,97531.48
2018-07-07T20:54:33.576Z,97525.04
2018-07-07T20:57:02.863Z,97526.22
2018-07-07T20:59:32.044Z,97524.92
2018-07-07T21:02:01.480Z,97529.30
2018-07-07T21:04:30.627Z,97527.99
2018-07-07T21:07:00.231Z,97527.82
2018-07-07T21:09:29.463Z,97533.75
2018-07-07T21:11:58.973Z,97537.23
2018-07-07T21:14:28.161Z,97539.48
2018-07-07T21:16:57.447Z,97534.02
2018-07-07T21:19:27.015Z,97535.33
2018-07-07T21:21:56.303Z,97533.16
2018-07-07T21:24:26.019Z,97538.84
2018-07-07T21:26:55.293Z,97533.01
2018-07-07T21:29:24.547Z,97537.34
2018-07-07T21:31:53.650Z,97529.97
2018-07-07T21:34:22.824Z,97541.38
2018-07-07T21:36:51.965Z,97533.94
2018-07-07T21:39:21.302Z,97533.54
2018-07-07T21:41:50.526Z,97539.13
2018-07-07T21:44:20.179Z,97539.30
2018-07-07T21:46:49.347Z,97537.35
2018-07-07T21:49:18.507Z,97543.58
2018-07-07T21:51:47.662Z,97538.53
2018-07-07T21:54:17.375Z,97538.22
2018-07-07T21:56:50.687Z,97536.91
2018-07-07T21:59:20.827Z,97541.83
2018-07-07T22:01:56.291Z,97541.25
2018-07-07T22:04:31.635Z,97542.47
2018-07-07T22:07:07.051Z,97541.47
2018-07-07T22:09:37.010Z,97537.77
2018-07-07T22:12:06.411Z,97536.72
2018-07-07T22:14:35.631Z,97544.31
2018-07-07T22:17:04.831Z,97544.95
2018-07-07T22:19:34.039Z,97544.26
2018-07-07T22:22:07.139Z,97544.03
2018-07-07T22:24:36.748Z,97552.03
2018-07-07T22:27:07.959Z,97551.73
2018-07-07T22:29:38.735Z,97551.47
2018-07-07T22:32:13.075Z,97538.58
2018-07-07T22:34:42.478Z,97542.41
2018-07-07T22:37:11.752Z,97541.35
2018-07-07T22:39:42.295Z,97540.30
2018-07-07T22:42:13.455Z,97536.84
2018-07-07T22:44:43.643Z,97529.23
2018-07-07T22:47:12.835Z,97532.86
2018-07-07T22:49:42.387Z,97537.47
2018-07-07T22:52:11.834Z,97538.34
2018-07-07T22:54:41.023Z,97532.44
2018-07-07T22:57:10.205Z,97528.09
2018-07-07T22:59:39.460Z,97532.70
2018-07-07T23:02:08.628Z,97530.82
2018-07-07T23:04:37.807Z,97530.28
2018-07-07T23:07:06.952Z,97532.17
2018-07-07T23:09:36.169Z,97534.05
2018-07-07T23:12:05.467Z,97537.59
2018-07-07T23:14:34.647Z,97534.64
2018-07-07T23:17:04.019Z,97527.31
2018-07-07T23:19:33.471Z,97530.84
2018-07-07T23:22:02.979Z,97531.94
2018-07-07T23:24:32.143Z,97531.12
2018-07-07T23:27:01.340Z,97529.48
2018-07-07T23:29:30.527Z,97534.36
2018-07-07T23:31:59.744Z,97536.01
2018-07-07T23:34:28.971Z,97533.28
2018-07-07T23:36:58.267Z,97538.67
2018-07-07T23:39:27.520Z,97538.95
2018-07-07T23:41:56.687Z,97542.73
2018-07-07T23:44:25.971Z,97533.55
2018-07-07T23:46:55.110Z,97539.73
2018-07-07T23:49:24.302Z,97534.59
2018-07-07T23:51:53.895Z,97532.37
2018-07-07T23:54:23.046Z,97543.70
2018-07-07T23:56:52.230Z,97533.95
2018-07-07T23:59:21.411Z,97535.06
